sensor_id;sensor_type;location;lat;lon;timestamp;temperature;humidity
26103;DHT22;32703;49.182;9.042;2022-09-09T00:04:26;14.60;99.90
26103;DHT22;32703;49.182;9.042;2022-09-09T00:09:50;14.60;99.90
26103;DHT22;32703;49.182;9.042;2022-09-09T00:12:29;14.60;99.90
26103;DHT22;32703;49.182;9.042;2022-09-09T00:15:00;14.50;99.90
26103;DHT22;32703;49.182;9.042;2022-09-09T00:17:53;14.50;99.90
26103;DHT22;32703;49.182;9.042;2022-09-09T00:20:35;14.50;99.90
26103;DHT22;32703;49.182;9.042;2022-09-09T00:23:14;14.60;99.90
26103;DHT22;32703;49.182;9.042;2022-09-09T00:26:04;15.00;99.90
26103;DHT22;32703;49.182;9.042;2022-09-09T00:28:39;14.60;99.90
26103;DHT22;32703;49.182;9.042;2022-09-09T00:31:12;14.60;99.90
26103;DHT22;32703;49.182;9.042;2022-09-09T00:33:38;14.60;99.90
26103;DHT22;32703;49.182;9.042;2022-09-09T00:36:12;14.70;99.90
26103;DHT22;32703;49.182;9.042;2022-09-09T00:38:51;14.50;99.90
26103;DHT22;32703;49.182;9.042;2022-09-09T00:41:48;14.70;99.90
26103;DHT22;32703;49.182;9.042;2022-09-09T00:44:33;14.70;99.90
26103;DHT22;32703;49.182;9.042;2022-09-09T00:50:01;14.70;99.90
26103;DHT22;32703;49.182;9.042;2022-09-09T00:52:40;14.70;99.90
26103;DHT22;32703;49.182;9.042;2022-09-09T00:55:54;14.80;99.90
26103;DHT22;32703;49.182;9.042;2022-09-09T00:58:00;14.80;99.90
26103;DHT22;32703;49.182;9.042;2022-09-09T01:00:29;14.90;99.90
26103;DHT22;32703;49.182;9.042;2022-09-09T01:03:10;15.60;99.90
26103;DHT22;32703;49.182;9.042;2022-09-09T01:11:01;14.80;99.90
26103;DHT22;32703;49.182;9.042;2022-09-09T01:13:33;14.80;99.90
26103;DHT22;32703;49.182;9.042;2022-09-09T01:18:46;14.90;99.90
26103;DHT22;32703;49.182;9.042;2022-09-09T01:31:36;14.90;99.90
26103;DHT22;32703;49.182;9.042;2022-09-09T01:36:45;14.90;99.90
26103;DHT22;32703;49.182;9.042;2022-09-09T01:41:38;14.90;99.90
26103;DHT22;32703;49.182;9.042;2022-09-09T01:44:05;15.00;99.90
26103;DHT22;32703;49.182;9.042;2022-09-09T01:46:31;15.00;99.90
26103;DHT22;32703;49.182;9.042;2022-09-09T01:48:57;14.90;99.90
26103;DHT22;32703;49.182;9.042;2022-09-09T01:51:24;15.10;99.90
26103;DHT22;32703;49.182;9.042;2022-09-09T01:53:50;15.10;99.90
26103;DHT22;32703;49.182;9.042;2022-09-09T02:04:48;15.20;99.90
26103;DHT22;32703;49.182;9.042;2022-09-09T02:07:41;15.20;99.90
26103;DHT22;32703;49.182;9.042;2022-09-09T02:10:16;15.30;99.90
26103;DHT22;32703;49.182;9.042;2022-09-09T02:12:47;15.30;99.90
26103;DHT22;32703;49.182;9.042;2022-09-09T02:15:36;15.30;99.90
26103;DHT22;32703;49.182;9.042;2022-09-09T02:18:08;15.40;99.90
26103;DHT22;32703;49.182;9.042;2022-09-09T02:20:37;15.30;99.90
26103;DHT22;32703;49.182;9.042;2022-09-09T02:23:07;15.30;99.90
26103;DHT22;32703;49.182;9.042;2022-09-09T02:25:36;15.40;99.90
26103;DHT22;32703;49.182;9.042;2022-09-09T02:28:04;15.40;99.90
26103;DHT22;32703;49.182;9.042;2022-09-09T02:30:32;15.50;99.90
26103;DHT22;32703;49.182;9.042;2022-09-09T02:33:01;15.40;99.90
26103;DHT22;32703;49.182;9.042;2022-09-09T02:35:30;15.30;99.90
26103;DHT22;32703;49.182;9.042;2022-09-09T02:38:01;15.30;99.90
26103;DHT22;32703;49.182;9.042;2022-09-09T02:40:27;15.20;99.90
26103;DHT22;32703;49.182;9.042;2022-09-09T02:42:54;15.20;99.90
26103;DHT22;32703;49.182;9.042;2022-09-09T02:45:27;15.10;99.90
26103;DHT22;32703;49.182;9.042;2022-09-09T02:50:39;15.10;99.90
26103;DHT22;32703;49.182;9.042;2022-09-09T02:53:16;15.10;99.90
26103;DHT22;32703;49.182;9.042;2022-09-09T02:55:50;15.00;99.90
26103;DHT22;32703;49.182;9.042;2022-09-09T02:58:20;15.10;99.90
26103;DHT22;32703;49.182;9.042;2022-09-09T03:00:48;15.00;99.90
26103;DHT22;32703;49.182;9.042;2022-09-09T03:03:14;15.00;99.90
26103;DHT22;32703;49.182;9.042;2022-09-09T03:05:42;15.00;99.90
26103;DHT22;32703;49.182;9.042;2022-09-09T03:08:08;15.00;99.90
26103;DHT22;32703;49.182;9.042;2022-09-09T03:10:34;15.10;99.90
26103;DHT22;32703;49.182;9.042;2022-09-09T03:13:00;15.10;99.90
26103;DHT22;32703;49.182;9.042;2022-09-09T03:15:26;15.10;99.90
26103;DHT22;32703;49.182;9.042;2022-09-09T03:17:55;15.10;99.90
26103;DHT22;32703;49.182;9.042;2022-09-09T03:20:23;15.10;99.90
26103;DHT22;32703;49.182;9.042;2022-09-09T03:22:49;15.10;99.90
26103;DHT22;32703;49.182;9.042;2022-09-09T03:25:15;15.10;99.90
26103;DHT22;32703;49.182;9.042;2022-09-09T03:27:40;15.00;99.90
26103;DHT22;32703;49.182;9.042;2022-09-09T03:30:06;15.00;99.90
26103;DHT22;32703;49.182;9.042;2022-09-09T03:32:32;15.10;99.90
26103;DHT22;32703;49.182;9.042;2022-09-09T03:34:58;15.10;99.90
26103;DHT22;32703;49.182;9.042;2022-09-09T03:37:23;15.10;99.90
26103;DHT22;32703;49.182;9.042;2022-09-09T03:39:49;15.10;99.90
26103;DHT22;32703;49.182;9.042;2022-09-09T03:42:15;15.10;99.90
26103;DHT22;32703;49.182;9.042;2022-09-09T03:44:44;15.10;99.90
26103;DHT22;32703;49.182;9.042;2022-09-09T03:47:13;15.20;99.90
26103;DHT22;32703;49.182;9.042;2022-09-09T03:49:38;15.20;99.90
26103;DHT22;32703;49.182;9.042;2022-09-09T03:52:04;15.10;99.90
26103;DHT22;32703;49.182;9.042;2022-09-09T03:54:29;14.60;99.90
26103;DHT22;32703;49.182;9.042;2022-09-09T03:56:55;16.10;99.90
26103;DHT22;32703;49.182;9.042;2022-09-09T03:59:20;15.10;99.90
26103;DHT22;32703;49.182;9.042;2022-09-09T04:21:15;14.90;99.90
26103;DHT22;32703;49.182;9.042;2022-09-09T04:28:35;15.00;99.90
26103;DHT22;32703;49.182;9.042;2022-09-09T04:36:01;14.90;99.90
26103;DHT22;32703;49.182;9.042;2022-09-09T04:38:26;14.80;99.90
26103;DHT22;32703;49.182;9.042;2022-09-09T04:40:52;14.80;99.90
26103;DHT22;32703;49.182;9.042;2022-09-09T04:43:19;14.70;99.90
26103;DHT22;32703;49.182;9.042;2022-09-09T04:45:50;14.70;99.90
26103;DHT22;32703;49.182;9.042;2022-09-09T04:48:17;14.80;99.90
26103;DHT22;32703;49.182;9.042;2022-09-09T04:58:05;14.70;99.90
26103;DHT22;32703;49.182;9.042;2022-09-09T05:00:31;14.70;99.90
26103;DHT22;32703;49.182;9.042;2022-09-09T05:17:35;14.70;99.90
26103;DHT22;32703;49.182;9.042;2022-09-09T05:20:01;14.60;99.90
26103;DHT22;32703;49.182;9.042;2022-09-09T05:22:29;14.70;99.90
26103;DHT22;32703;49.182;9.042;2022-09-09T05:24:55;14.70;99.90
26103;DHT22;32703;49.182;9.042;2022-09-09T05:27:21;14.70;99.90
26103;DHT22;32703;49.182;9.042;2022-09-09T05:29:47;14.70;99.90
26103;DHT22;32703;49.182;9.042;2022-09-09T05:32:13;14.80;99.90
26103;DHT22;32703;49.182;9.042;2022-09-09T05:34:40;14.80;99.90
26103;DHT22;32703;49.182;9.042;2022-09-09T05:37:06;14.80;99.90
26103;DHT22;32703;49.182;9.042;2022-09-09T05:39:33;14.80;99.90
26103;DHT22;32703;49.182;9.042;2022-09-09T05:41:59;14.80;99.90
26103;DHT22;32703;49.182;9.042;2022-09-09T05:54:13;15.00;99.90
26103;DHT22;32703;49.182;9.042;2022-09-09T05:56:41;15.00;99.90
26103;DHT22;32703;49.182;9.042;2022-09-09T05:59:07;15.10;99.90
26103;DHT22;32703;49.182;9.042;2022-09-09T06:01:34;15.10;99.90
26103;DHT22;32703;49.182;9.042;2022-09-09T06:03:59;15.20;99.90
26103;DHT22;32703;49.182;9.042;2022-09-09T06:06:27;15.20;99.90
26103;DHT22;32703;49.182;9.042;2022-09-09T06:08:55;15.20;99.90
26103;DHT22;32703;49.182;9.042;2022-09-09T06:11:26;15.20;99.90
26103;DHT22;32703;49.182;9.042;2022-09-09T06:13:52;15.50;99.90
26103;DHT22;32703;49.182;9.042;2022-09-09T06:16:21;15.80;99.90
26103;DHT22;32703;49.182;9.042;2022-09-09T06:18:53;15.40;99.90
26103;DHT22;32703;49.182;9.042;2022-09-09T06:21:24;15.50;99.90
26103;DHT22;32703;49.182;9.042;2022-09-09T06:23:49;15.60;99.90
26103;DHT22;32703;49.182;9.042;2022-09-09T06:26:28;15.70;99.90
26103;DHT22;32703;49.182;9.042;2022-09-09T06:28:55;15.80;99.90
26103;DHT22;32703;49.182;9.042;2022-09-09T06:31:24;15.90;99.90
26103;DHT22;32703;49.182;9.042;2022-09-09T06:33:52;16.00;99.90
26103;DHT22;32703;49.182;9.042;2022-09-09T06:36:20;16.10;99.90
26103;DHT22;32703;49.182;9.042;2022-09-09T06:38:46;16.10;99.90
26103;DHT22;32703;49.182;9.042;2022-09-09T06:41:14;16.40;99.90
26103;DHT22;32703;49.182;9.042;2022-09-09T06:43:40;16.20;99.90
26103;DHT22;32703;49.182;9.042;2022-09-09T06:46:09;16.30;99.90
26103;DHT22;32703;49.182;9.042;2022-09-09T06:48:35;16.30;99.90
26103;DHT22;32703;49.182;9.042;2022-09-09T06:53:39;16.40;99.90
26103;DHT22;32703;49.182;9.042;2022-09-09T06:58:40;16.60;99.90
26103;DHT22;32703;49.182;9.042;2022-09-09T07:01:10;16.90;99.90
26103;DHT22;32703;49.182;9.042;2022-09-09T07:03:38;17.20;99.90
26103;DHT22;32703;49.182;9.042;2022-09-09T07:06:04;17.30;99.90
26103;DHT22;32703;49.182;9.042;2022-09-09T07:08:30;17.50;99.90
26103;DHT22;32703;49.182;9.042;2022-09-09T07:11:05;17.70;99.90
26103;DHT22;32703;49.182;9.042;2022-09-09T07:13:31;17.80;99.90
26103;DHT22;32703;49.182;9.042;2022-09-09T07:16:11;17.90;99.90
26103;DHT22;32703;49.182;9.042;2022-09-09T07:18:37;18.00;99.90
26103;DHT22;32703;49.182;9.042;2022-09-09T07:21:03;18.10;99.90
26103;DHT22;32703;49.182;9.042;2022-09-09T07:23:29;18.70;99.90
26103;DHT22;32703;49.182;9.042;2022-09-09T07:25:56;18.30;99.90
26103;DHT22;32703;49.182;9.042;2022-09-09T07:28:22;18.40;99.90
26103;DHT22;32703;49.182;9.042;2022-09-09T07:33:20;18.40;99.90
26103;DHT22;32703;49.182;9.042;2022-09-09T07:35:46;18.40;99.90
26103;DHT22;32703;49.182;9.042;2022-09-09T07:38:11;18.40;99.90
26103;DHT22;32703;49.182;9.042;2022-09-09T07:40:37;18.40;99.90
26103;DHT22;32703;49.182;9.042;2022-09-09T07:43:03;18.40;99.90
26103;DHT22;32703;49.182;9.042;2022-09-09T07:45:29;18.40;99.90
26103;DHT22;32703;49.182;9.042;2022-09-09T07:47:55;18.30;99.90
26103;DHT22;32703;49.182;9.042;2022-09-09T07:50:22;18.30;99.90
26103;DHT22;32703;49.182;9.042;2022-09-09T07:52:49;18.30;99.90
26103;DHT22;32703;49.182;9.042;2022-09-09T07:55:15;18.70;99.90
26103;DHT22;32703;49.182;9.042;2022-09-09T07:57:40;18.90;99.90
26103;DHT22;32703;49.182;9.042;2022-09-09T08:00:06;19.10;99.90
26103;DHT22;32703;49.182;9.042;2022-09-09T08:02:32;19.30;99.90
26103;DHT22;32703;49.182;9.042;2022-09-09T08:04:58;19.30;99.90
26103;DHT22;32703;49.182;9.042;2022-09-09T08:07:23;19.40;99.40
26103;DHT22;32703;49.182;9.042;2022-09-09T08:09:49;19.40;99.10
26103;DHT22;32703;49.182;9.042;2022-09-09T08:12:15;19.50;98.50
26103;DHT22;32703;49.182;9.042;2022-09-09T08:14:41;19.70;98.00
26103;DHT22;32703;49.182;9.042;2022-09-09T08:17:07;20.00;97.80
26103;DHT22;32703;49.182;9.042;2022-09-09T08:19:33;20.10;97.50
26103;DHT22;32703;49.182;9.042;2022-09-09T08:22:02;20.30;97.00
26103;DHT22;32703;49.182;9.042;2022-09-09T08:24:28;20.50;96.80
26103;DHT22;32703;49.182;9.042;2022-09-09T08:26:54;20.60;95.80
26103;DHT22;32703;49.182;9.042;2022-09-09T08:29:22;20.70;95.30
26103;DHT22;32703;49.182;9.042;2022-09-09T08:31:53;20.80;94.70
26103;DHT22;32703;49.182;9.042;2022-09-09T08:34:24;21.00;94.30
26103;DHT22;32703;49.182;9.042;2022-09-09T08:36:51;21.30;93.70
26103;DHT22;32703;49.182;9.042;2022-09-09T08:39:19;21.60;93.40
26103;DHT22;32703;49.182;9.042;2022-09-09T08:52:16;22.80;88.40
26103;DHT22;32703;49.182;9.042;2022-09-09T08:54:43;22.90;87.70
26103;DHT22;32703;49.182;9.042;2022-09-09T08:57:14;23.10;87.00
26103;DHT22;32703;49.182;9.042;2022-09-09T08:59:43;23.30;83.50
26103;DHT22;32703;49.182;9.042;2022-09-09T09:10:51;24.10;77.80
26103;DHT22;32703;49.182;9.042;2022-09-09T09:13:40;24.40;75.20
26103;DHT22;32703;49.182;9.042;2022-09-09T09:16:19;24.50;73.50
26103;DHT22;32703;49.182;9.042;2022-09-09T09:18:47;24.70;72.50
26103;DHT22;32703;49.182;9.042;2022-09-09T09:21:25;24.70;71.40
26103;DHT22;32703;49.182;9.042;2022-09-09T09:24:00;24.50;70.50
26103;DHT22;32703;49.182;9.042;2022-09-09T09:26:31;24.20;71.90
26103;DHT22;32703;49.182;9.042;2022-09-09T09:28:59;24.10;72.00
26103;DHT22;32703;49.182;9.042;2022-09-09T09:31:26;24.10;71.90
26103;DHT22;32703;49.182;9.042;2022-09-09T09:33:55;24.10;73.00
26103;DHT22;32703;49.182;9.042;2022-09-09T09:36:41;23.80;75.80
26103;DHT22;32703;49.182;9.042;2022-09-09T09:39:08;23.30;77.40
26103;DHT22;32703;49.182;9.042;2022-09-09T09:41:40;22.40;79.80
26103;DHT22;32703;49.182;9.042;2022-09-09T09:46:48;21.00;88.10
26103;DHT22;32703;49.182;9.042;2022-09-09T09:49:14;20.60;90.40
26103;DHT22;32703;49.182;9.042;2022-09-09T09:51:40;20.40;91.00
26103;DHT22;32703;49.182;9.042;2022-09-09T09:56:41;19.90;92.10
26103;DHT22;32703;49.182;9.042;2022-09-09T10:01:54;20.50;91.80
26103;DHT22;32703;49.182;9.042;2022-09-09T10:04:22;21.10;90.90
26103;DHT22;32703;49.182;9.042;2022-09-09T10:06:49;21.40;90.00
26103;DHT22;32703;49.182;9.042;2022-09-09T10:09:30;21.60;88.20
26103;DHT22;32703;49.182;9.042;2022-09-09T10:12:18;21.90;87.10
26103;DHT22;32703;49.182;9.042;2022-09-09T10:17:39;22.40;84.20
26103;DHT22;32703;49.182;9.042;2022-09-09T10:22:35;22.90;81.00
26103;DHT22;32703;49.182;9.042;2022-09-09T10:26:21;23.30;80.30
26103;DHT22;32703;49.182;9.042;2022-09-09T10:31:42;24.00;76.70
26103;DHT22;32703;49.182;9.042;2022-09-09T10:36:58;23.90;73.40
26103;DHT22;32703;49.182;9.042;2022-09-09T10:39:40;23.90;71.80
26103;DHT22;32703;49.182;9.042;2022-09-09T10:42:15;24.10;69.90
26103;DHT22;32703;49.182;9.042;2022-09-09T10:44:45;24.30;68.50
26103;DHT22;32703;49.182;9.042;2022-09-09T10:47:39;24.20;67.80
26103;DHT22;32703;49.182;9.042;2022-09-09T10:55:44;25.00;65.30
26103;DHT22;32703;49.182;9.042;2022-09-09T10:58:17;25.00;64.80
26103;DHT22;32703;49.182;9.042;2022-09-09T11:00:48;25.00;64.00
26103;DHT22;32703;49.182;9.042;2022-09-09T11:03:24;25.10;63.70
26103;DHT22;32703;49.182;9.042;2022-09-09T11:05:58;25.20;63.80
26103;DHT22;32703;49.182;9.042;2022-09-09T11:08:27;25.40;62.40
26103;DHT22;32703;49.182;9.042;2022-09-09T11:16:49;26.20;61.50
26103;DHT22;32703;49.182;9.042;2022-09-09T11:19:30;26.60;59.60
26103;DHT22;32703;49.182;9.042;2022-09-09T11:22:17;26.60;58.30
26103;DHT22;32703;49.182;9.042;2022-09-09T11:33:03;26.00;60.00
26103;DHT22;32703;49.182;9.042;2022-09-09T11:40:53;26.70;58.60
26103;DHT22;32703;49.182;9.042;2022-09-09T11:43:28;26.50;57.70
26103;DHT22;32703;49.182;9.042;2022-09-09T11:45:57;26.00;58.20
26103;DHT22;32703;49.182;9.042;2022-09-09T11:48:36;25.40;58.90
26103;DHT22;32703;49.182;9.042;2022-09-09T11:53:30;25.40;62.10
26103;DHT22;32703;49.182;9.042;2022-09-09T11:58:36;26.30;59.30
26103;DHT22;32703;49.182;9.042;2022-09-09T12:01:25;26.70;57.80
26103;DHT22;32703;49.182;9.042;2022-09-09T12:04:17;27.00;56.00
26103;DHT22;32703;49.182;9.042;2022-09-09T12:06:45;27.00;55.50
26103;DHT22;32703;49.182;9.042;2022-09-09T12:14:43;25.40;59.00
26103;DHT22;32703;49.182;9.042;2022-09-09T12:19:39;25.50;59.70
26103;DHT22;32703;49.182;9.042;2022-09-09T12:24:46;26.50;56.50
26103;DHT22;32703;49.182;9.042;2022-09-09T12:27:25;26.80;54.60
26103;DHT22;32703;49.182;9.042;2022-09-09T12:30:02;27.00;54.50
26103;DHT22;32703;49.182;9.042;2022-09-09T12:32:28;27.20;54.40
26103;DHT22;32703;49.182;9.042;2022-09-09T12:35:03;27.10;52.20
26103;DHT22;32703;49.182;9.042;2022-09-09T12:37:37;27.00;53.00
26103;DHT22;32703;49.182;9.042;2022-09-09T12:40:04;27.00;53.00
26103;DHT22;32703;49.182;9.042;2022-09-09T12:42:31;27.30;52.60
26103;DHT22;32703;49.182;9.042;2022-09-09T12:45:03;27.50;50.50
26103;DHT22;32703;49.182;9.042;2022-09-09T12:48:02;27.60;49.70
26103;DHT22;32703;49.182;9.042;2022-09-09T12:50:32;27.50;50.10
26103;DHT22;32703;49.182;9.042;2022-09-09T12:53:08;27.50;50.60
26103;DHT22;32703;49.182;9.042;2022-09-09T12:55:37;27.40;51.50
26103;DHT22;32703;49.182;9.042;2022-09-09T12:58:06;27.40;51.60
26103;DHT22;32703;49.182;9.042;2022-09-09T13:00:34;27.10;52.10
26103;DHT22;32703;49.182;9.042;2022-09-09T13:03:02;27.10;53.00
26103;DHT22;32703;49.182;9.042;2022-09-09T13:05:36;27.10;53.50
26103;DHT22;32703;49.182;9.042;2022-09-09T13:08:03;27.00;53.40
26103;DHT22;32703;49.182;9.042;2022-09-09T13:10:33;27.00;53.10
26103;DHT22;32703;49.182;9.042;2022-09-09T13:13:00;26.80;53.20
26103;DHT22;32703;49.182;9.042;2022-09-09T13:15:28;26.50;53.10
26103;DHT22;32703;49.182;9.042;2022-09-09T13:17:57;26.30;54.00
26103;DHT22;32703;49.182;9.042;2022-09-09T13:20:23;26.20;55.50
26103;DHT22;32703;49.182;9.042;2022-09-09T13:22:51;26.20;54.00
26103;DHT22;32703;49.182;9.042;2022-09-09T13:25:19;26.20;54.80
26103;DHT22;32703;49.182;9.042;2022-09-09T13:30:31;26.10;55.10
26103;DHT22;32703;49.182;9.042;2022-09-09T13:33:02;26.00;54.90
26103;DHT22;32703;49.182;9.042;2022-09-09T13:35:28;25.90;55.70
26103;DHT22;32703;49.182;9.042;2022-09-09T13:37:55;25.60;56.20
26103;DHT22;32703;49.182;9.042;2022-09-09T13:40:22;25.30;57.20
26103;DHT22;32703;49.182;9.042;2022-09-09T13:42:51;25.00;58.40
26103;DHT22;32703;49.182;9.042;2022-09-09T13:45:20;24.60;59.20
26103;DHT22;32703;49.182;9.042;2022-09-09T13:47:46;24.20;60.40
26103;DHT22;32703;49.182;9.042;2022-09-09T13:50:29;24.00;61.70
26103;DHT22;32703;49.182;9.042;2022-09-09T13:52:56;23.90;62.80
26103;DHT22;32703;49.182;9.042;2022-09-09T13:55:24;23.70;64.00
26103;DHT22;32703;49.182;9.042;2022-09-09T13:58:00;23.30;65.00
26103;DHT22;32703;49.182;9.042;2022-09-09T14:00:29;23.10;68.30
26103;DHT22;32703;49.182;9.042;2022-09-09T14:02:54;22.90;71.00
26103;DHT22;32703;49.182;9.042;2022-09-09T14:05:20;22.50;73.30
26103;DHT22;32703;49.182;9.042;2022-09-09T14:07:47;22.60;72.50
26103;DHT22;32703;49.182;9.042;2022-09-09T14:10:13;22.50;71.30
26103;DHT22;32703;49.182;9.042;2022-09-09T14:12:39;22.60;70.50
26103;DHT22;32703;49.182;9.042;2022-09-09T14:15:06;22.60;70.80
26103;DHT22;32703;49.182;9.042;2022-09-09T14:17:32;22.50;70.80
26103;DHT22;32703;49.182;9.042;2022-09-09T14:19:58;22.30;71.40
26103;DHT22;32703;49.182;9.042;2022-09-09T14:22:24;22.00;72.40
26103;DHT22;32703;49.182;9.042;2022-09-09T14:24:50;21.80;73.00
26103;DHT22;32703;49.182;9.042;2022-09-09T14:27:17;21.80;73.90
26103;DHT22;32703;49.182;9.042;2022-09-09T14:29:44;21.80;74.30
26103;DHT22;32703;49.182;9.042;2022-09-09T14:32:10;21.70;74.80
26103;DHT22;32703;49.182;9.042;2022-09-09T14:34:36;21.70;75.20
26103;DHT22;32703;49.182;9.042;2022-09-09T14:37:01;21.70;75.60
26103;DHT22;32703;49.182;9.042;2022-09-09T14:39:27;21.70;76.80
26103;DHT22;32703;49.182;9.042;2022-09-09T14:41:53;21.70;77.10
26103;DHT22;32703;49.182;9.042;2022-09-09T14:44:18;21.70;77.10
26103;DHT22;32703;49.182;9.042;2022-09-09T14:46:45;21.50;76.90
26103;DHT22;32703;49.182;9.042;2022-09-09T14:49:11;21.30;77.70
26103;DHT22;32703;49.182;9.042;2022-09-09T14:51:37;21.20;78.80
26103;DHT22;32703;49.182;9.042;2022-09-09T14:54:03;21.00;79.20
26103;DHT22;32703;49.182;9.042;2022-09-09T14:56:32;20.70;80.00
26103;DHT22;32703;49.182;9.042;2022-09-09T14:59:00;20.50;80.90
26103;DHT22;32703;49.182;9.042;2022-09-09T15:01:29;20.40;81.50
26103;DHT22;32703;49.182;9.042;2022-09-09T15:04:00;20.30;82.20
26103;DHT22;32703;49.182;9.042;2022-09-09T15:06:29;20.20;83.00
26103;DHT22;32703;49.182;9.042;2022-09-09T15:08:55;20.20;83.50
26103;DHT22;32703;49.182;9.042;2022-09-09T15:11:27;20.10;84.00
26103;DHT22;32703;49.182;9.042;2022-09-09T15:13:53;20.10;84.10
26103;DHT22;32703;49.182;9.042;2022-09-09T15:16:20;20.10;84.20
26103;DHT22;32703;49.182;9.042;2022-09-09T15:18:51;20.10;84.60
26103;DHT22;32703;49.182;9.042;2022-09-09T15:21:19;20.00;84.70
26103;DHT22;32703;49.182;9.042;2022-09-09T15:23:45;20.00;85.10
26103;DHT22;32703;49.182;9.042;2022-09-09T15:26:11;20.10;85.70
26103;DHT22;32703;49.182;9.042;2022-09-09T15:28:39;20.10;85.70
26103;DHT22;32703;49.182;9.042;2022-09-09T15:31:07;20.10;86.20
26103;DHT22;32703;49.182;9.042;2022-09-09T15:33:34;20.00;86.60
26103;DHT22;32703;49.182;9.042;2022-09-09T15:36:15;20.00;86.80
26103;DHT22;32703;49.182;9.042;2022-09-09T15:38:41;20.00;87.50
26103;DHT22;32703;49.182;9.042;2022-09-09T15:41:07;19.90;87.90
26103;DHT22;32703;49.182;9.042;2022-09-09T15:43:32;19.90;88.50
26103;DHT22;32703;49.182;9.042;2022-09-09T15:48:44;19.70;90.10
26103;DHT22;32703;49.182;9.042;2022-09-09T15:51:10;19.60;90.50
26103;DHT22;32703;49.182;9.042;2022-09-09T15:53:37;19.50;90.80
26103;DHT22;32703;49.182;9.042;2022-09-09T15:56:07;19.50;91.20
26103;DHT22;32703;49.182;9.042;2022-09-09T15:58:36;19.50;91.30
26103;DHT22;32703;49.182;9.042;2022-09-09T16:01:07;19.40;90.50
26103;DHT22;32703;49.182;9.042;2022-09-09T16:03:37;19.40;90.60
26103;DHT22;32703;49.182;9.042;2022-09-09T16:06:04;19.40;90.20
26103;DHT22;32703;49.182;9.042;2022-09-09T16:08:37;19.40;90.50
26103;DHT22;32703;49.182;9.042;2022-09-09T16:11:08;19.40;90.50
26103;DHT22;32703;49.182;9.042;2022-09-09T16:13:39;19.20;90.20
26103;DHT22;32703;49.182;9.042;2022-09-09T16:16:06;19.30;89.40
26103;DHT22;32703;49.182;9.042;2022-09-09T16:18:37;19.40;89.30
26103;DHT22;32703;49.182;9.042;2022-09-09T16:21:03;19.50;88.40
26103;DHT22;32703;49.182;9.042;2022-09-09T16:23:31;19.40;88.60
26103;DHT22;32703;49.182;9.042;2022-09-09T16:25:57;19.50;88.60
26103;DHT22;32703;49.182;9.042;2022-09-09T16:28:23;19.40;88.90
26103;DHT22;32703;49.182;9.042;2022-09-09T16:30:48;19.40;90.30
26103;DHT22;32703;49.182;9.042;2022-09-09T16:33:15;19.40;90.80
26103;DHT22;32703;49.182;9.042;2022-09-09T16:35:41;19.40;91.20
26103;DHT22;32703;49.182;9.042;2022-09-09T16:38:07;19.30;91.30
26103;DHT22;32703;49.182;9.042;2022-09-09T16:40:36;19.50;91.50
26103;DHT22;32703;49.182;9.042;2022-09-09T16:43:03;19.60;91.60
26103;DHT22;32703;49.182;9.042;2022-09-09T16:45:29;19.60;91.40
26103;DHT22;32703;49.182;9.042;2022-09-09T16:47:55;19.90;91.30
26103;DHT22;32703;49.182;9.042;2022-09-09T16:50:21;19.90;89.80
26103;DHT22;32703;49.182;9.042;2022-09-09T16:52:46;20.00;88.40
26103;DHT22;32703;49.182;9.042;2022-09-09T16:55:12;20.00;87.00
26103;DHT22;32703;49.182;9.042;2022-09-09T16:57:37;19.90;86.30
26103;DHT22;32703;49.182;9.042;2022-09-09T17:00:04;19.90;86.60
26103;DHT22;32703;49.182;9.042;2022-09-09T17:02:32;19.80;87.20
26103;DHT22;32703;49.182;9.042;2022-09-09T17:04:57;19.70;87.90
26103;DHT22;32703;49.182;9.042;2022-09-09T17:07:23;19.60;88.80
26103;DHT22;32703;49.182;9.042;2022-09-09T17:09:48;19.50;89.10
26103;DHT22;32703;49.182;9.042;2022-09-09T17:12:14;19.50;90.30
26103;DHT22;32703;49.182;9.042;2022-09-09T17:14:41;19.40;90.20
26103;DHT22;32703;49.182;9.042;2022-09-09T17:17:07;19.20;90.40
26103;DHT22;32703;49.182;9.042;2022-09-09T17:19:33;19.20;90.50
26103;DHT22;32703;49.182;9.042;2022-09-09T17:21:59;19.20;90.60
26103;DHT22;32703;49.182;9.042;2022-09-09T17:24:26;19.20;90.90
26103;DHT22;32703;49.182;9.042;2022-09-09T17:26:52;19.10;90.90
26103;DHT22;32703;49.182;9.042;2022-09-09T17:29:18;19.10;91.10
26103;DHT22;32703;49.182;9.042;2022-09-09T17:31:44;19.00;91.30
26103;DHT22;32703;49.182;9.042;2022-09-09T17:34:10;18.90;91.30
26103;DHT22;32703;49.182;9.042;2022-09-09T17:36:37;18.90;91.70
26103;DHT22;32703;49.182;9.042;2022-09-09T17:39:04;18.90;91.30
26103;DHT22;32703;49.182;9.042;2022-09-09T17:41:33;18.80;91.10
26103;DHT22;32703;49.182;9.042;2022-09-09T17:43:59;18.80;90.70
26103;DHT22;32703;49.182;9.042;2022-09-09T17:46:30;18.70;90.70
26103;DHT22;32703;49.182;9.042;2022-09-09T17:49:04;18.70;90.90
26103;DHT22;32703;49.182;9.042;2022-09-09T17:51:31;18.70;91.80
26103;DHT22;32703;49.182;9.042;2022-09-09T17:54:03;18.50;92.80
26103;DHT22;32703;49.182;9.042;2022-09-09T17:56:30;18.30;93.60
26103;DHT22;32703;49.182;9.042;2022-09-09T17:58:57;18.00;94.40
26103;DHT22;32703;49.182;9.042;2022-09-09T18:01:25;17.80;96.00
26103;DHT22;32703;49.182;9.042;2022-09-09T18:03:52;17.50;97.30
26103;DHT22;32703;49.182;9.042;2022-09-09T18:06:22;17.30;99.10
26103;DHT22;32703;49.182;9.042;2022-09-09T18:09:00;17.00;99.90
26103;DHT22;32703;49.182;9.042;2022-09-09T18:11:29;16.80;99.90
26103;DHT22;32703;49.182;9.042;2022-09-09T18:13:58;16.50;99.90
26103;DHT22;32703;49.182;9.042;2022-09-09T18:16:29;16.40;99.90
26103;DHT22;32703;49.182;9.042;2022-09-09T18:18:55;16.30;99.90
26103;DHT22;32703;49.182;9.042;2022-09-09T18:21:23;16.20;99.90
26103;DHT22;32703;49.182;9.042;2022-09-09T18:23:50;16.20;99.90
26103;DHT22;32703;49.182;9.042;2022-09-09T18:26:19;16.10;99.90
26103;DHT22;32703;49.182;9.042;2022-09-09T18:28:50;16.10;99.90
26103;DHT22;32703;49.182;9.042;2022-09-09T18:31:18;16.00;99.90
26103;DHT22;32703;49.182;9.042;2022-09-09T18:33:46;16.00;99.90
26103;DHT22;32703;49.182;9.042;2022-09-09T18:36:17;15.90;99.90
26103;DHT22;32703;49.182;9.042;2022-09-09T18:38:42;15.90;99.90
26103;DHT22;32703;49.182;9.042;2022-09-09T18:41:22;15.90;99.90
26103;DHT22;32703;49.182;9.042;2022-09-09T18:43:53;15.90;99.90
26103;DHT22;32703;49.182;9.042;2022-09-09T18:46:20;15.80;99.90
26103;DHT22;32703;49.182;9.042;2022-09-09T18:48:47;15.80;99.90
26103;DHT22;32703;49.182;9.042;2022-09-09T18:51:15;15.70;99.90
26103;DHT22;32703;49.182;9.042;2022-09-09T18:53:42;15.70;99.90
26103;DHT22;32703;49.182;9.042;2022-09-09T18:56:11;15.70;99.90
26103;DHT22;32703;49.182;9.042;2022-09-09T18:58:38;15.60;99.90
26103;DHT22;32703;49.182;9.042;2022-09-09T19:01:07;15.70;99.90